Time;durP1;ratioP1;P1;durP2;ratioP2;P2;SDS_P1;SDS_P2;PMS_P1;PMS_P2;Temp;Humidity;BMP_temperature;BMP_pressure;BME280_temperature;BME280_humidity;BME280_pressure;Samples;Min_cycle;Max_cycle;Signal;HPM_P1;HPM_P2
2022/09/28 00:00:24;;;;;;;1.83;0.63;;;16.70;68.30;;;;;;10368899;28;20032;-63
2022/09/28 00:05:27;;;;;;;1.45;0.57;;;16.80;67.60;;;;;;10367649;28;20121;-62
2022/09/28 00:10:28;;;;;;;1.27;0.60;;;16.80;66.80;;;;;;10366936;28;20112;-62
2022/09/28 00:15:28;;;;;;;2.50;0.80;;;16.70;68.60;;;;;;10367084;28;20169;-61
2022/09/28 00:20:29;;;;;;;1.42;0.60;;;16.60;69.20;;;;;;10366537;28;20109;-62
2022/09/28 00:25:30;;;;;;;1.20;0.70;;;16.60;69.60;;;;;;10367603;28;20503;-62
2022/09/28 00:30:31;;;;;;;1.40;0.70;;;16.60;69.80;;;;;;10366197;28;20116;-62
2022/09/28 00:35:31;;;;;;;2.85;0.90;;;16.60;69.90;;;;;;10366087;28;20014;-61
2022/09/28 00:40:32;;;;;;;1.80;0.98;;;16.50;69.80;;;;;;10379500;28;20088;-64
2022/09/28 00:45:33;;;;;;;1.38;0.60;;;16.50;70.00;;;;;;10366699;28;20025;-62
2022/09/28 00:50:36;;;;;;;2.25;1.02;;;16.50;70.00;;;;;;10365829;28;20037;-61
2022/09/28 00:55:42;;;;;;;2.10;0.90;;;16.50;70.10;;;;;;10378336;28;20354;-61
2022/09/28 01:00:43;;;;;;;1.73;1.00;;;16.50;70.20;;;;;;10365317;28;20026;-62
2022/09/28 01:05:45;;;;;;;1.88;0.57;;;16.50;70.30;;;;;;10377916;28;20513;-62
2022/09/28 01:10:47;;;;;;;2.45;1.00;;;16.50;70.30;;;;;;10378388;28;20100;-62
2022/09/28 01:16:13;;;;;;;2.13;0.95;;;16.50;70.40;;;;;;10364493;28;20057;-61
2022/09/28 01:21:19;;;;;;;1.65;0.80;;;16.50;70.30;;;;;;10380417;28;20037;-62
2022/09/28 01:26:46;;;;;;;1.95;0.60;;;16.50;70.40;;;;;;10393863;28;20022;-61
2022/09/28 01:31:55;;;;;;;2.95;0.90;;;16.50;70.60;;;;;;10380118;28;20517;-62
2022/09/28 01:37:00;;;;;;;2.00;0.83;;;16.50;70.60;;;;;;10363760;28;20413;-61
2022/09/28 01:42:09;;;;;;;2.20;0.70;;;16.40;70.60;;;;;;10377076;28;20568;-62
2022/09/28 01:47:14;;;;;;;1.90;0.88;;;16.40;70.60;;;;;;10363565;28;20034;-61
2022/09/28 01:52:33;;;;;;;2.25;0.90;;;16.40;70.70;;;;;;10363827;28;20598;-61
2022/09/28 01:57:54;;;;;;;1.58;0.60;;;16.40;70.90;;;;;;10366239;28;20033;-62
2022/09/28 02:03:14;;;;;;;0.68;0.40;;;16.40;70.60;;;;;;10382362;28;20037;-62
2022/09/28 02:08:36;;;;;;;3.05;0.65;;;16.50;68.60;;;;;;10370790;28;20062;-62
2022/09/28 02:13:57;;;;;;;1.10;0.50;;;16.60;67.50;;;;;;10362564;28;20024;-60
2022/09/28 02:18:58;;;;;;;1.05;0.60;;;16.60;66.60;;;;;;10362651;28;20407;-62
2022/09/28 02:24:11;;;;;;;1.55;0.45;;;16.60;68.20;;;;;;10375676;28;20129;-62
2022/09/28 02:29:12;;;;;;;1.10;0.52;;;16.50;68.40;;;;;;10376131;28;20018;-61
2022/09/28 02:34:13;;;;;;;1.40;0.60;;;16.50;68.70;;;;;;10363971;28;20021;-63
2022/09/28 02:39:16;;;;;;;1.77;0.90;;;16.50;69.00;;;;;;10364904;28;20125;-62
2022/09/28 02:44:48;;;;;;;1.15;0.55;;;16.40;69.10;;;;;;10370715;28;20465;-61
2022/09/28 02:50:16;;;;;;;1.17;0.70;;;16.40;69.10;;;;;;10369840;28;20025;-62
2022/09/28 02:55:18;;;;;;;1.30;0.60;;;16.40;69.30;;;;;;10370621;28;20572;-61
2022/09/28 03:00:23;;;;;;;1.50;1.00;;;16.40;69.40;;;;;;10370980;28;20790;-61
2022/09/28 03:05:55;;;;;;;1.15;0.68;;;16.40;69.50;;;;;;10369727;28;20420;-62
2022/09/28 03:11:06;;;;;;;2.80;0.90;;;16.40;69.70;;;;;;10385942;28;20470;-62
2022/09/28 03:16:12;;;;;;;1.15;0.93;;;16.40;69.70;;;;;;10369278;28;20030;-61
2022/09/28 03:21:14;;;;;;;1.90;0.60;;;16.40;69.80;;;;;;10370312;28;20531;-62
2022/09/28 03:26:15;;;;;;;1.85;0.70;;;16.30;69.80;;;;;;10348973;28;20033;-62
2022/09/28 03:31:16;;;;;;;1.08;0.50;;;16.30;70.10;;;;;;10368782;28;20461;-62
2022/09/28 03:36:16;;;;;;;0.98;0.40;;;16.30;70.10;;;;;;10381603;28;20105;-62
2022/09/28 03:41:17;;;;;;;1.70;0.80;;;16.30;70.30;;;;;;10401525;28;20511;-62
2022/09/28 03:46:18;;;;;;;2.15;0.50;;;16.30;70.30;;;;;;10367829;28;20122;-62
2022/09/28 03:51:18;;;;;;;0.50;0.40;;;16.30;70.30;;;;;;10368292;28;20026;-62
2022/09/28 03:56:19;;;;;;;1.33;0.57;;;16.30;70.30;;;;;;10370662;28;20032;-62
2022/09/28 04:01:20;;;;;;;0.73;0.47;;;16.30;70.40;;;;;;10367424;28;20461;-62
2022/09/28 04:06:22;;;;;;;1.48;0.57;;;16.30;70.40;;;;;;10379817;28;20101;-62
2022/09/28 04:11:23;;;;;;;1.15;0.40;;;16.30;69.60;;;;;;10382107;28;20022;-61
2022/09/28 04:16:23;;;;;;;0.88;0.40;;;16.30;67.90;;;;;;10383347;28;20065;-61
2022/09/28 04:21:24;;;;;;;2.63;0.65;;;16.40;67.50;;;;;;10366919;28;20049;-61
2022/09/28 04:26:26;;;;;;;2.53;0.70;;;16.50;66.40;;;;;;10366157;28;20052;-62
2022/09/28 04:31:28;;;;;;;1.05;0.47;;;16.40;67.70;;;;;;10365429;28;20389;-62
2022/09/28 04:36:29;;;;;;;1.08;0.40;;;16.30;67.90;;;;;;10367008;28;20641;-62
2022/09/28 04:41:30;;;;;;;1.92;0.77;;;16.30;68.30;;;;;;10366440;28;20049;-62
2022/09/28 04:46:30;;;;;;;0.93;0.52;;;16.30;68.60;;;;;;10366164;28;20042;-61
2022/09/28 04:51:31;;;;;;;0.85;0.50;;;16.30;68.60;;;;;;10365827;28;20040;-61
2022/09/28 04:56:32;;;;;;;0.95;0.50;;;16.30;68.80;;;;;;10349359;28;20018;-61
2022/09/28 05:01:33;;;;;;;0.85;0.50;;;16.30;68.90;;;;;;10372807;28;20014;-60
2022/09/28 05:06:33;;;;;;;1.40;1.02;;;16.30;68.90;;;;;;10365451;28;20112;-65
2022/09/28 05:11:34;;;;;;;1.55;0.82;;;16.20;69.00;;;;;;10365135;28;20120;-60
2022/09/28 05:16:35;;;;;;;2.22;0.90;;;16.30;69.60;;;;;;10381739;28;20037;-61
2022/09/28 05:21:35;;;;;;;3.88;0.70;;;16.50;70.10;;;;;;10365719;28;20026;-60
2022/09/28 05:26:36;;;;;;;6.20;1.00;;;16.50;70.10;;;;;;10366812;28;20493;-65
2022/09/28 05:31:37;;;;;;;4.22;0.75;;;16.70;70.40;;;;;;10360753;28;20080;-62
2022/09/28 05:36:39;;;;;;;7.65;1.00;;;16.60;70.50;;;;;;10366245;28;20478;-62
2022/09/28 05:41:39;;;;;;;5.72;1.17;;;16.60;70.70;;;;;;10364161;28;20524;-61
2022/09/28 05:46:40;;;;;;;3.50;0.95;;;16.50;71.00;;;;;;10360473;28;20149;-59
2022/09/28 05:51:41;;;;;;;10.88;1.75;;;16.50;70.70;;;;;;10361792;28;20755;-59
2022/09/28 05:56:41;;;;;;;5.30;0.88;;;16.60;71.00;;;;;;10364907;28;20592;-60
2022/09/28 06:01:42;;;;;;;7.57;1.75;;;16.50;69.00;;;;;;10361912;28;20113;-62
2022/09/28 06:06:43;;;;;;;8.38;1.33;;;16.60;70.60;;;;;;10360160;28;20030;-62
2022/09/28 06:11:43;;;;;;;9.35;1.48;;;16.60;70.40;;;;;;10362016;28;20101;-61
2022/09/28 06:16:44;;;;;;;6.18;1.50;;;16.50;70.40;;;;;;10359530;28;20030;-65
2022/09/28 06:21:46;;;;;;;11.85;2.55;;;16.50;70.40;;;;;;10359507;28;20125;-63
2022/09/28 06:26:47;;;;;;;8.25;2.10;;;16.50;70.40;;;;;;10361877;28;20072;-64
2022/09/28 06:31:47;;;;;;;9.90;1.52;;;16.40;70.30;;;;;;10364504;28;20101;-63
2022/09/28 06:36:48;;;;;;;16.42;2.83;;;16.40;70.30;;;;;;10361287;28;20627;-62
2022/09/28 06:41:49;;;;;;;8.98;2.95;;;16.30;70.40;;;;;;10361969;28;20143;-62
2022/09/28 06:46:50;;;;;;;7.28;1.63;;;16.30;70.70;;;;;;10391353;28;20040;-62
2022/09/28 06:51:51;;;;;;;8.27;1.60;;;16.30;71.10;;;;;;10371580;28;20024;-63
2022/09/28 06:56:52;;;;;;;6.38;1.30;;;16.30;71.20;;;;;;10363418;28;20105;-62
2022/09/28 07:01:53;;;;;;;7.38;1.52;;;16.30;70.60;;;;;;10359885;28;20025;-62
2022/09/28 07:06:53;;;;;;;9.05;2.13;;;16.30;70.50;;;;;;10360152;28;20088;-62
2022/09/28 07:11:54;;;;;;;10.30;1.35;;;16.30;70.40;;;;;;10359168;28;20018;-62
2022/09/28 07:16:55;;;;;;;7.40;1.40;;;16.20;70.40;;;;;;10360029;28;20160;-63
2022/09/28 07:21:56;;;;;;;3.00;1.10;;;16.20;70.40;;;;;;10358110;28;20053;-62
2022/09/28 07:26:57;;;;;;;3.92;1.58;;;16.20;70.40;;;;;;10365068;28;20032;-62
2022/09/28 07:31:58;;;;;;;2.50;0.80;;;16.20;70.50;;;;;;10367522;28;20049;-61
2022/09/28 07:36:59;;;;;;;3.83;1.15;;;16.20;70.50;;;;;;10369030;28;20018;-63
2022/09/28 07:41:59;;;;;;;2.85;0.93;;;16.20;70.50;;;;;;10368805;28;20096;-62
2022/09/28 07:47:00;;;;;;;6.82;1.73;;;16.20;70.50;;;;;;10366569;28;20053;-63
2022/09/28 07:52:01;;;;;;;8.98;1.67;;;16.20;70.70;;;;;;10366543;28;20026;-61
2022/09/28 07:57:02;;;;;;;9.38;1.30;;;16.20;71.10;;;;;;10383918;28;20443;-61
2022/09/28 08:02:03;;;;;;;12.30;1.40;;;16.20;70.90;;;;;;10368187;28;20100;-63
2022/09/28 08:07:11;;;;;;;7.05;1.40;;;16.20;71.00;;;;;;10363800;28;20033;-61
2022/09/28 08:12:13;;;;;;;6.15;1.42;;;16.20;70.90;;;;;;10376574;28;20033;-61
2022/09/28 08:17:14;;;;;;;6.38;0.80;;;16.20;70.90;;;;;;10362721;28;20105;-61
2022/09/28 08:22:17;;;;;;;4.82;0.70;;;16.30;71.00;;;;;;10378998;28;20026;-61
2022/09/28 08:27:18;;;;;;;6.68;1.67;;;16.20;70.90;;;;;;10381082;28;20076;-61
2022/09/28 08:32:19;;;;;;;5.00;1.73;;;16.20;70.90;;;;;;10370931;28;20057;-61
2022/09/28 08:37:20;;;;;;;10.43;1.55;;;16.30;70.90;;;;;;10366459;28;20455;-61
2022/09/28 08:42:38;;;;;;;6.35;1.10;;;16.30;70.90;;;;;;10365262;28;20079;-61
2022/09/28 08:53:50;;;;;;;4.50;1.83;;;16.40;70.80;;;;;;10367403;28;20065;-62
2022/09/28 08:58:59;;;;;;;3.50;1.27;;;16.40;70.80;;;;;;10365276;28;20014;-61
2022/09/28 09:04:01;;;;;;;7.28;1.40;;;16.40;70.70;;;;;;10365212;28;20042;-61
2022/09/28 09:09:21;;;;;;;2.72;0.55;;;16.40;70.70;;;;;;10364946;28;20030;-61
2022/09/28 09:14:42;;;;;;;3.95;0.80;;;16.50;70.70;;;;;;10366287;28;20026;-61
2022/09/28 09:19:54;;;;;;;2.15;0.70;;;16.50;70.60;;;;;;10365528;28;20633;-61
2022/09/28 09:25:13;;;;;;;5.15;1.05;;;16.50;70.70;;;;;;10364397;28;20096;-61
2022/09/28 09:30:18;;;;;;;3.57;0.80;;;16.60;70.70;;;;;;10365492;28;20018;-61
2022/09/28 09:35:58;;;;;;;4.13;1.40;;;16.50;70.60;;;;;;10365026;28;20025;-61
2022/09/28 09:41:19;;;;;;;2.80;0.88;;;16.60;70.50;;;;;;10364466;28;20470;-61
2022/09/28 09:46:41;;;;;;;3.28;0.70;;;16.60;70.60;;;;;;10363389;28;20041;-60
2022/09/28 09:51:51;;;;;;;3.45;0.68;;;16.70;70.50;;;;;;10362836;28;20084;-61
2022/09/28 09:57:04;;;;;;;1.98;0.60;;;16.70;70.60;;;;;;10363969;28;20425;-61
2022/09/28 10:02:27;;;;;;;3.50;0.40;;;16.70;70.60;;;;;;10363618;28;20378;-61
2022/09/28 10:08:12;;;;;;;1.85;0.50;;;16.70;70.60;;;;;;10379334;28;20553;-61
2022/09/28 10:13:12;;;;;;;1.65;0.50;;;16.70;70.40;;;;;;10363507;28;20783;-61
2022/09/28 10:18:17;;;;;;;3.13;0.70;;;16.70;70.40;;;;;;10363877;28;20061;-61
2022/09/28 10:23:30;;;;;;;2.03;0.82;;;16.70;70.50;;;;;;10362491;28;20122;-61
2022/09/28 10:29:11;;;;;;;4.40;1.08;;;16.70;70.80;;;;;;10362737;28;20022;-61
2022/09/28 10:34:16;;;;;;;3.03;0.40;;;16.70;70.60;;;;;;10376453;28;20018;-61
2022/09/28 10:39:38;;;;;;;4.07;0.60;;;16.60;70.70;;;;;;10361818;28;20061;-60
2022/09/28 10:45:18;;;;;;;1.48;0.57;;;16.60;70.70;;;;;;10362351;28;20113;-60
2022/09/28 10:50:26;;;;;;;1.75;0.47;;;16.60;70.80;;;;;;10365672;28;20029;-61
2022/09/28 10:55:31;;;;;;;3.70;0.85;;;16.60;70.70;;;;;;10377713;28;20087;-61
2022/09/28 11:00:41;;;;;;;1.30;0.70;;;16.60;70.80;;;;;;10366369;28;20482;-61
2022/09/28 11:05:42;;;;;;;2.40;0.50;;;16.60;70.90;;;;;;10370032;28;20038;-61
2022/09/28 11:10:43;;;;;;;1.30;0.50;;;16.60;70.80;;;;;;10370555;28;20365;-61
2022/09/28 11:15:44;;;;;;;1.27;0.95;;;16.60;71.00;;;;;;10368565;28;20033;-62
2022/09/28 11:20:45;;;;;;;1.42;0.50;;;16.70;71.00;;;;;;10368870;28;20034;-62
2022/09/28 11:26:06;;;;;;;1.63;0.52;;;16.80;70.80;;;;;;10384852;28;20359;-62
2022/09/28 11:31:07;;;;;;;2.33;0.40;;;16.80;70.80;;;;;;10365075;28;20029;-61
2022/09/28 11:36:17;;;;;;;1.80;0.50;;;16.90;70.50;;;;;;10351385;28;20072;-61
2022/09/28 11:41:48;;;;;;;1.58;0.70;;;16.90;70.40;;;;;;10368452;28;20046;-61
2022/09/28 11:47:24;;;;;;;1.00;0.30;;;16.90;70.50;;;;;;10383653;28;20053;-59
2022/09/28 11:52:55;;;;;;;5.97;0.70;;;17.00;70.50;;;;;;10365923;28;20029;-60
2022/09/28 11:58:21;;;;;;;3.47;0.50;;;17.00;70.60;;;;;;10366718;28;20068;-59
2022/09/28 12:03:27;;;;;;;2.00;0.45;;;16.90;70.60;;;;;;10365919;28;20037;-59
2022/09/28 12:08:33;;;;;;;1.35;0.55;;;16.90;70.80;;;;;;10356015;28;20108;-60
2022/09/28 12:13:41;;;;;;;1.52;0.40;;;16.90;70.90;;;;;;10366459;28;20055;-60
2022/09/28 12:19:18;;;;;;;6.65;0.93;;;16.90;70.80;;;;;;10366476;28;20022;-60
2022/09/28 12:24:44;;;;;;;6.18;1.30;;;16.90;70.70;;;;;;10351710;28;20077;-63
2022/09/28 12:30:18;;;;;;;9.32;1.90;;;17.10;70.70;;;;;;10367011;28;20040;-59
2022/09/28 12:36:03;;;;;;;19.90;2.75;;;17.10;70.70;;;;;;10366612;28;20026;-60
2022/09/28 12:41:27;;;;;;;10.73;2.60;;;17.10;70.70;;;;;;10345179;28;21230;-57
2022/09/28 12:47:04;;;;;;;12.05;2.63;;;17.10;71.10;;;;;;10366848;28;20105;-58
2022/09/28 12:52:38;;;;;;;10.82;2.50;;;17.10;71.20;;;;;;10366773;28;20029;-57
2022/09/28 12:58:28;;;;;;;19.20;3.33;;;17.10;71.10;;;;;;10366369;28;20041;-57
2022/09/28 13:04:16;;;;;;;22.05;3.92;;;17.00;71.30;;;;;;10375133;28;20065;-57
2022/09/28 13:09:25;;;;;;;16.90;3.30;;;16.90;71.30;;;;;;10378743;28;20029;-57
2022/09/28 13:14:53;;;;;;;;;;;16.90;71.60;;;;;;10367998;28;20125;-59
2022/09/28 13:20:11;;;;;;;22.60;3.80;;;16.80;71.60;;;;;;10395537;28;20564;-58
2022/09/28 13:25:17;;;;;;;24.23;4.38;;;16.80;72.00;;;;;;10362665;28;20092;-59
2022/09/28 13:30:18;;;;;;;27.70;4.22;;;16.80;71.90;;;;;;10360367;28;20050;-59
2022/09/28 13:35:19;;;;;;;29.13;3.90;;;16.90;72.10;;;;;;10363369;28;20509;-61
2022/09/28 13:41:05;;;;;;;24.10;3.75;;;17.10;72.40;;;;;;10360917;28;20095;-63
2022/09/28 13:46:33;;;;;;;28.83;4.40;;;17.10;71.60;;;;;;10364289;28;20037;-60
2022/09/28 13:52:07;;;;;;;17.02;4.07;;;16.90;72.00;;;;;;10353333;28;20022;-60
2022/09/28 13:57:35;;;;;;;19.05;4.45;;;16.90;72.20;;;;;;10391387;28;20029;-61
2022/09/28 14:03:03;;;;;;;19.70;3.90;;;16.90;72.40;;;;;;10357705;28;20611;-60
2022/09/28 14:08:33;;;;;;;20.48;4.00;;;16.80;72.70;;;;;;10361913;28;20073;-59
2022/09/28 14:13:39;;;;;;;;;;;16.80;72.70;;;;;;10372211;28;20014;-60
2022/09/28 14:18:40;;;;;;;24.00;4.07;;;16.80;72.80;;;;;;10367402;28;19929;-59
2022/09/28 14:24:10;;;;;;;27.17;3.72;;;16.90;73.10;;;;;;10361312;28;20041;-59
2022/09/28 14:29:11;;;;;;;;;;;17.10;72.90;;;;;;10354386;28;20038;-58
2022/09/28 14:34:33;;;;;;;37.35;5.25;;;17.20;73.20;;;;;;10362318;28;19956;-59
2022/09/28 14:45:02;;;;;;;33.90;14.55;;;17.30;73.50;;;;;;10371979;28;20033;-60
2022/09/28 14:50:27;;;;;;;32.28;9.88;;;17.40;74.40;;;;;;10365856;28;20492;-60
2022/09/28 14:55:40;;;;;;;27.30;8.32;;;17.40;74.30;;;;;;10380572;28;20084;-60
2022/09/28 15:00:43;;;;;;;24.45;7.45;;;17.40;72.70;;;;;;10365336;28;20466;-60
2022/09/28 15:05:46;;;;;;;14.43;6.35;;;17.20;72.50;;;;;;10360296;28;20034;-60
2022/09/28 15:10:49;;;;;;;17.10;4.40;;;17.20;72.20;;;;;;10377098;28;20084;-59
2022/09/28 15:16:05;;;;;;;13.23;4.35;;;17.40;71.50;;;;;;10365162;28;20431;-60
2022/09/28 15:21:06;;;;;;;13.75;4.13;;;17.60;71.10;;;;;;10363596;28;20104;-60
2022/09/28 15:26:26;;;;;;;18.25;4.82;;;17.60;71.60;;;;;;10366543;28;20198;-59
2022/09/28 15:31:29;;;;;;;13.55;4.40;;;17.50;72.20;;;;;;10366554;28;20116;-59
2022/09/28 15:36:38;;;;;;;10.70;4.60;;;17.50;72.60;;;;;;10366339;28;20052;-59
2022/09/28 15:41:41;;;;;;;10.23;3.90;;;17.50;72.90;;;;;;10366133;28;20046;-60
2022/09/28 15:46:50;;;;;;;18.85;4.30;;;17.50;73.20;;;;;;10364703;28;20100;-60
2022/09/28 15:51:54;;;;;;;13.90;5.37;;;17.50;73.50;;;;;;10366142;28;20465;-60
2022/09/28 15:56:58;;;;;;;17.60;5.65;;;17.60;73.60;;;;;;10366080;28;20273;-60
2022/09/28 16:02:21;;;;;;;29.65;8.27;;;17.70;73.00;;;;;;10365687;28;20041;-61
2022/09/28 16:07:38;;;;;;;30.42;7.78;;;17.80;73.60;;;;;;10364665;28;20042;-59
2022/09/28 16:12:38;;;;;;;28.40;6.95;;;17.80;74.30;;;;;;10366224;28;20026;-60
2022/09/28 16:17:40;;;;;;;29.55;7.07;;;17.70;74.30;;;;;;10366017;28;20026;-60
2022/09/28 16:22:42;;;;;;;25.83;6.30;;;17.60;74.40;;;;;;10364966;28;20528;-61
2022/09/28 16:27:44;;;;;;;27.70;5.55;;;17.70;74.50;;;;;;10365248;28;20030;-60
2022/09/28 16:32:49;;;;;;;24.73;5.20;;;17.60;74.10;;;;;;10362147;28;20357;-58
2022/09/28 16:38:01;;;;;;;28.02;7.80;;;17.60;73.90;;;;;;10357719;28;20528;-59
2022/09/28 16:43:05;;;;;;;29.60;7.00;;;17.50;74.10;;;;;;10362496;28;20103;-59
2022/09/28 16:48:13;;;;;;;52.90;8.95;;;17.50;74.50;;;;;;10363762;28;20029;-58
2022/09/28 16:58:36;;;;;;;39.05;8.27;;;17.50;74.60;;;;;;10363607;28;20453;-58
2022/09/28 17:03:37;;;;;;;32.08;9.32;;;17.30;74.80;;;;;;10364051;28;20034;-58
2022/09/28 17:08:38;;;;;;;25.98;6.32;;;17.30;74.80;;;;;;10366280;28;20010;-58
2022/09/28 17:13:39;;;;;;;28.08;6.50;;;17.20;74.80;;;;;;10365821;28;20018;-58
2022/09/28 17:18:40;;;;;;;29.35;7.22;;;17.20;74.90;;;;;;10363644;28;20425;-58
2022/09/28 17:23:46;;;;;;;26.95;5.75;;;17.20;74.70;;;;;;10380285;28;20046;-59
2022/09/28 17:28:47;;;;;;;30.48;7.32;;;17.20;74.50;;;;;;10365201;28;20026;-58
2022/09/28 17:33:48;;;;;;;23.27;6.05;;;17.20;74.30;;;;;;10364512;28;20063;-58
2022/09/28 17:38:50;;;;;;;17.67;5.13;;;17.10;74.20;;;;;;10361188;28;20073;-58
2022/09/28 17:43:51;;;;;;;19.40;4.30;;;17.10;74.30;;;;;;10362704;28;20037;-58
2022/09/28 17:48:56;;;;;;;15.25;4.78;;;17.00;74.30;;;;;;10359807;28;20054;-58
2022/09/28 17:53:59;;;;;;;18.52;4.68;;;17.00;74.30;;;;;;10365959;28;20030;-57
2022/09/28 17:59:03;;;;;;;17.13;5.20;;;17.00;74.70;;;;;;10362149;28;20045;-58
2022/09/28 18:04:07;;;;;;;18.45;4.40;;;17.00;74.90;;;;;;10360543;28;20030;-58
2022/09/28 18:09:13;;;;;;;13.77;3.67;;;17.00;74.40;;;;;;10377641;28;20068;-58
2022/09/28 18:14:13;;;;;;;17.33;4.28;;;17.00;74.10;;;;;;10357184;28;20069;-57
2022/09/28 18:19:14;;;;;;;15.55;4.13;;;17.10;73.90;;;;;;10360463;28;20125;-59
2022/09/28 18:24:15;;;;;;;19.67;5.57;;;17.00;74.80;;;;;;10360379;28;20069;-58
2022/09/28 18:29:18;;;;;;;18.15;4.05;;;17.00;74.50;;;;;;10360464;28;20414;-58
2022/09/28 18:34:19;;;;;;;13.07;4.30;;;16.90;74.40;;;;;;10358891;28;20061;-59
2022/09/28 18:39:19;;;;;;;9.88;3.47;;;16.90;74.50;;;;;;10367332;28;20145;-59
2022/09/28 18:44:20;;;;;;;12.32;3.45;;;16.90;74.60;;;;;;10366210;28;20046;-59
2022/09/28 18:49:21;;;;;;;14.25;3.78;;;17.00;74.30;;;;;;10361017;28;20032;-59
2022/09/28 18:54:23;;;;;;;14.32;4.53;;;17.00;73.90;;;;;;10360200;28;20114;-59
2022/09/28 18:59:24;;;;;;;17.15;3.95;;;16.90;73.80;;;;;;10358752;28;20499;-58
2022/09/28 19:04:24;;;;;;;10.10;3.30;;;16.90;73.90;;;;;;10363072;28;20038;-58
2022/09/28 19:09:25;;;;;;;11.82;3.55;;;16.90;73.80;;;;;;10362339;28;20476;-58
2022/09/28 19:14:26;;;;;;;12.63;4.20;;;16.90;73.80;;;;;;10361924;28;20018;-59
2022/09/28 19:19:28;;;;;;;11.05;4.18;;;16.90;73.80;;;;;;10377822;28;20381;-59
2022/09/28 19:24:29;;;;;;;7.72;2.97;;;16.80;73.60;;;;;;10369898;28;20112;-58
2022/09/28 19:29:29;;;;;;;10.43;2.92;;;16.80;73.50;;;;;;10370483;28;20508;-58
2022/09/28 19:34:30;;;;;;;10.82;3.05;;;16.80;73.50;;;;;;10384673;28;20068;-58
2022/09/28 19:39:31;;;;;;;8.60;3.10;;;16.80;73.40;;;;;;10367561;28;20124;-58
2022/09/28 19:44:32;;;;;;;9.55;3.15;;;16.80;73.40;;;;;;10367421;28;20109;-58
2022/09/28 19:49:36;;;;;;;8.85;3.47;;;16.80;71.60;;;;;;10366991;28;20076;-58
2022/09/28 19:54:37;;;;;;;7.13;2.50;;;16.80;70.50;;;;;;10365215;28;20026;-58
2022/09/28 19:59:38;;;;;;;8.18;3.97;;;16.90;69.40;;;;;;10381485;28;20704;-58
2022/09/28 20:04:39;;;;;;;6.25;2.88;;;17.00;68.80;;;;;;10363632;28;20445;-58
2022/09/28 20:09:40;;;;;;;11.88;3.33;;;17.00;68.10;;;;;;10369231;28;20029;-57
2022/09/28 20:14:41;;;;;;;9.88;3.47;;;17.00;67.60;;;;;;10367464;28;20029;-59
2022/09/28 20:19:42;;;;;;;8.38;3.67;;;17.10;67.10;;;;;;10368036;28;20499;-59
2022/09/28 20:24:42;;;;;;;9.35;3.58;;;17.10;66.80;;;;;;10365566;28;20064;-59
2022/09/28 20:29:43;;;;;;;11.68;3.92;;;17.00;67.90;;;;;;10366381;28;20046;-58
2022/09/28 20:34:44;;;;;;;7.57;3.22;;;16.90;68.70;;;;;;10367855;28;20053;-59
2022/09/28 20:39:44;;;;;;;6.40;3.03;;;16.80;69.20;;;;;;10366034;28;20049;-58
2022/09/28 20:44:45;;;;;;;11.68;3.83;;;16.80;69.50;;;;;;10366412;28;20120;-59
2022/09/28 20:49:46;;;;;;;6.97;2.65;;;16.70;69.70;;;;;;10368961;28;20101;-59
2022/09/28 20:54:47;;;;;;;6.28;2.97;;;16.70;69.80;;;;;;10366744;28;20076;-58
2022/09/28 20:59:48;;;;;;;8.32;3.22;;;16.70;70.10;;;;;;10367946;28;20109;-58
2022/09/28 21:04:48;;;;;;;10.90;4.03;;;16.70;70.10;;;;;;10365979;28;20029;-59
2022/09/28 21:09:49;;;;;;;9.05;3.10;;;16.60;70.10;;;;;;10372036;28;20109;-58
2022/09/28 21:14:50;;;;;;;7.90;3.90;;;16.70;70.30;;;;;;10365414;28;20069;-58
2022/09/28 21:19:50;;;;;;;6.00;2.55;;;16.70;70.20;;;;;;10366620;28;20049;-58
2022/09/28 21:24:51;;;;;;;5.55;2.17;;;16.60;70.30;;;;;;10364062;28;20045;-58
2022/09/28 21:29:52;;;;;;;5.28;2.47;;;16.60;70.80;;;;;;10362894;28;20455;-58
2022/09/28 21:34:52;;;;;;;7.25;2.97;;;16.60;70.40;;;;;;10380992;28;20125;-58
2022/09/28 21:39:53;;;;;;;5.72;2.30;;;16.60;70.40;;;;;;10378542;28;20050;-58
2022/09/28 21:44:54;;;;;;;7.18;2.83;;;16.60;70.40;;;;;;10364114;28;20038;-58
2022/09/28 21:49:54;;;;;;;4.13;2.13;;;16.60;70.30;;;;;;10363829;28;20068;-58
2022/09/28 21:54:55;;;;;;;4.85;2.08;;;16.60;70.30;;;;;;10378753;28;20806;-58
2022/09/28 21:59:56;;;;;;;7.03;2.63;;;16.60;69.50;;;;;;10365171;28;20069;-57
2022/09/28 22:04:57;;;;;;;4.10;2.25;;;16.70;68.40;;;;;;10393026;28;20053;-59
2022/09/28 22:09:57;;;;;;;5.38;2.20;;;16.70;67.30;;;;;;10370594;28;20101;-60
2022/09/28 22:14:58;;;;;;;4.95;2.10;;;16.80;66.60;;;;;;10376587;28;20076;-58
2022/09/28 22:19:59;;;;;;;6.15;2.70;;;16.70;67.20;;;;;;10379602;28;20117;-58
2022/09/28 22:24:59;;;;;;;4.20;2.05;;;16.70;67.90;;;;;;10364503;28;20049;-58
2022/09/28 22:30:00;;;;;;;3.40;1.83;;;16.60;68.30;;;;;;10391349;28;20067;-58
2022/09/28 22:35:01;;;;;;;4.60;2.10;;;16.60;68.60;;;;;;10362804;28;20113;-58
2022/09/28 22:40:01;;;;;;;4.13;1.98;;;16.60;68.80;;;;;;10379247;28;20570;-57
2022/09/28 22:45:03;;;;;;;4.60;1.85;;;16.60;68.90;;;;;;10377342;28;20030;-59
2022/09/28 22:50:07;;;;;;;4.25;1.73;;;16.60;69.10;;;;;;10362907;28;20026;-58
2022/09/28 22:55:07;;;;;;;4.60;2.35;;;16.50;69.00;;;;;;10377114;28;20014;-59
2022/09/28 23:00:09;;;;;;;3.60;1.80;;;16.50;69.20;;;;;;10378572;28;20032;-58
2022/09/28 23:05:10;;;;;;;4.15;1.60;;;16.50;69.20;;;;;;10394198;28;20120;-59
2022/09/28 23:10:11;;;;;;;3.40;1.63;;;16.50;69.20;;;;;;10370604;28;20026;-58
2022/09/28 23:15:12;;;;;;;3.00;1.65;;;16.50;69.20;;;;;;10371845;28;20100;-59
2022/09/28 23:20:13;;;;;;;3.17;1.73;;;16.50;69.20;;;;;;10382577;28;20060;-58
2022/09/28 23:25:15;;;;;;;2.50;1.40;;;16.50;69.20;;;;;;10370344;28;20521;-58
2022/09/28 23:30:20;;;;;;;5.68;1.55;;;16.50;69.20;;;;;;10360169;28;20457;-59
2022/09/28 23:35:20;;;;;;;4.22;1.48;;;16.50;69.20;;;;;;10371257;28;20069;-58
2022/09/28 23:40:21;;;;;;;4.57;2.00;;;16.50;69.30;;;;;;10370905;28;20046;-58
2022/09/28 23:45:22;;;;;;;3.00;1.55;;;16.50;69.40;;;;;;10374065;28;20045;-58
2022/09/28 23:50:22;;;;;;;4.22;2.10;;;16.40;69.30;;;;;;10368706;28;20050;-58
2022/09/28 23:55:23;;;;;;;3.28;1.38;;;16.40;69.10;;;;;;10370105;28;20108;-58
